createdAt,value
2023-04-01T00:01:08.099Z,10.88
2023-04-01T00:03:36.467Z,10.60
2023-04-01T00:06:04.092Z,10.48
2023-04-01T00:08:31.511Z,10.50
2023-04-01T00:10:58.818Z,11.18
2023-04-01T00:13:27.439Z,10.85
2023-04-01T00:15:56.184Z,11.80
2023-04-01T00:18:26.807Z,11.45
2023-04-01T00:20:54.334Z,11.48
2023-04-01T00:23:21.683Z,13.15
2023-04-01T00:25:49.576Z,12.60
2023-04-01T00:28:19.130Z,12.45
2023-04-01T00:30:46.814Z,13.07
2023-04-01T00:33:14.112Z,12.07
2023-04-01T00:35:41.654Z,13.38
2023-04-01T00:38:08.731Z,12.77
2023-04-01T00:40:47.329Z,12.90
2023-04-01T00:43:22.051Z,14.40
2023-04-01T00:45:50.661Z,13.38
2023-04-01T00:48:21.591Z,12.13
2023-04-01T00:51:28.189Z,12.55
2023-04-01T00:53:59.123Z,13.45
2023-04-01T00:56:36.683Z,12.70
2023-04-01T00:59:15.475Z,13.93
2023-04-01T01:01:42.765Z,13.97
2023-04-01T01:04:26.523Z,12.67
2023-04-01T01:07:14.778Z,13.03
2023-04-01T01:10:13.385Z,13.97
2023-04-01T01:13:09.811Z,13.10
2023-04-01T01:16:05.941Z,14.83
2023-04-01T01:18:55.168Z,14.33
2023-04-01T01:21:35.055Z,13.88
2023-04-01T01:24:31.213Z,13.63
2023-04-01T01:27:15.840Z,13.23
2023-04-01T01:30:37.381Z,14.63
2023-04-01T01:33:27.034Z,14.43
2023-04-01T01:35:57.802Z,15.03
2023-04-01T01:38:30.894Z,14.77
2023-04-01T01:41:00.261Z,14.37
2023-04-01T01:43:40.455Z,14.87
2023-04-01T01:46:15.454Z,14.10
2023-04-01T01:48:44.771Z,15.50
2023-04-01T01:51:11.793Z,14.70
2023-04-01T01:53:38.970Z,15.33
2023-04-01T01:56:07.032Z,15.35
2023-04-01T01:58:59.753Z,15.55
2023-04-01T02:01:32.603Z,16.43
2023-04-01T02:04:00.508Z,17.07
2023-04-01T02:06:33.468Z,16.10
2023-04-01T02:13:10.529Z,18.07
2023-04-01T02:15:43.868Z,18.83
2023-04-01T02:18:12.619Z,19.43
2023-04-01T02:20:41.527Z,19.27
2023-04-01T02:23:11.337Z,18.70
2023-04-01T02:25:40.520Z,19.10
2023-04-01T02:28:10.503Z,19.67
2023-04-01T02:30:39.882Z,19.47
2023-04-01T02:33:07.685Z,18.07
2023-04-01T02:35:39.237Z,18.60
2023-04-01T02:38:07.442Z,17.50
2023-04-01T02:40:51.301Z,18.40
2023-04-01T02:43:20.030Z,18.85
2023-04-01T02:45:47.071Z,19.13
2023-04-01T02:48:15.137Z,18.17
2023-04-01T02:50:42.481Z,17.83
2023-04-01T02:53:09.593Z,19.90
2023-04-01T02:55:37.028Z,18.13
2023-04-01T02:58:04.427Z,19.73
2023-04-01T03:00:32.029Z,17.50
2023-04-01T03:02:59.266Z,17.20
2023-04-01T03:05:26.737Z,16.37
2023-04-01T03:07:53.753Z,16.17
2023-04-01T03:10:21.765Z,16.40
2023-04-01T03:12:48.834Z,16.20
2023-04-01T03:15:16.318Z,16.73
2023-04-01T03:17:44.292Z,16.80
2023-04-01T03:20:12.722Z,18.50
2023-04-01T03:22:41.532Z,19.40
2023-04-01T03:25:10.873Z,18.97
2023-04-01T03:27:37.950Z,18.80
2023-04-01T03:30:07.457Z,18.47
2023-04-01T03:32:34.878Z,17.23
2023-04-01T03:35:01.994Z,18.00
2023-04-01T03:37:29.394Z,15.83
2023-04-01T03:39:56.460Z,17.73
2023-04-01T03:42:23.558Z,16.73
2023-04-01T03:44:50.882Z,16.17
2023-04-01T03:47:17.953Z,16.17
2023-04-01T03:49:44.974Z,16.23
2023-04-01T03:52:12.801Z,16.53
2023-04-01T03:54:39.880Z,14.80
2023-04-01T03:57:07.384Z,14.27
2023-04-01T03:59:35.297Z,14.43
2023-04-01T04:02:02.475Z,14.70
2023-04-01T04:04:29.903Z,14.00
2023-04-01T04:06:57.337Z,15.03
2023-04-01T04:09:24.675Z,14.93
2023-04-01T04:11:52.172Z,15.03
2023-04-01T04:14:19.387Z,14.87
2023-04-01T04:16:46.456Z,14.47
2023-04-01T04:19:13.483Z,13.50
2023-04-01T04:21:42.815Z,12.57
2023-04-01T04:24:11.058Z,14.60
2023-04-01T04:26:38.174Z,13.30
2023-04-01T04:29:05.407Z,13.83
2023-04-01T04:31:32.661Z,14.27
2023-04-01T04:34:02.074Z,13.32
2023-04-01T04:36:29.223Z,13.23
2023-04-01T04:38:56.270Z,13.47
2023-04-01T04:41:23.448Z,14.00
2023-04-01T04:43:56.991Z,12.60
2023-04-01T04:46:24.776Z,12.23
2023-04-01T04:48:52.094Z,11.67
2023-04-01T04:51:21.338Z,11.90
2023-04-01T04:53:50.786Z,12.57
2023-04-01T04:56:23.425Z,12.67
2023-04-01T04:58:50.516Z,11.63
2023-04-01T05:01:18.986Z,12.30
2023-04-01T05:03:46.716Z,10.57
2023-04-01T05:06:15.794Z,11.73
2023-04-01T05:08:45.431Z,11.07
2023-04-01T05:11:18.796Z,11.50
2023-04-01T05:13:47.173Z,10.27
2023-04-01T05:16:19.068Z,10.73
2023-04-01T05:18:47.115Z,10.40
2023-04-01T05:21:16.417Z,10.03
2023-04-01T05:23:44.264Z,9.90
2023-04-01T05:26:14.927Z,10.00
2023-04-01T05:28:42.530Z,9.13
2023-04-01T05:31:10.358Z,9.83
2023-04-01T05:33:37.454Z,9.03
2023-04-01T05:36:14.013Z,8.50
2023-04-01T05:38:41.959Z,8.77
2023-04-01T05:41:09.015Z,8.17
2023-04-01T05:43:40.733Z,8.83
2023-04-01T05:46:07.843Z,8.23
2023-04-01T05:48:36.125Z,8.10
2023-04-01T05:51:04.305Z,8.77
2023-04-01T05:53:31.596Z,8.97
2023-04-01T05:56:02.763Z,8.57
2023-04-01T05:58:29.790Z,9.13
2023-04-01T06:01:10.117Z,7.80
2023-04-01T06:03:38.602Z,7.55
2023-04-01T06:06:16.860Z,8.68
2023-04-01T06:08:44.494Z,10.93
2023-04-01T06:11:55.003Z,6.57
2023-04-01T06:14:58.032Z,6.57
2023-04-01T06:18:04.473Z,6.68
2023-04-01T06:20:40.463Z,6.82
2023-04-01T06:23:32.898Z,6.63
2023-04-01T06:26:17.965Z,6.70
2023-04-01T06:29:14.547Z,6.95
2023-04-01T06:32:16.986Z,5.43
2023-04-01T06:34:52.856Z,5.63
2023-04-01T06:37:44.744Z,4.90
2023-04-01T06:40:30.787Z,4.80
2023-04-01T06:43:34.194Z,5.00
2023-04-01T06:46:08.012Z,5.28
2023-04-01T06:48:56.119Z,4.57
2023-04-01T06:51:26.836Z,3.90
2023-04-01T06:54:21.329Z,3.50
2023-04-01T06:56:58.394Z,3.45
2023-04-01T06:59:33.286Z,3.10
2023-04-01T07:02:27.548Z,3.28
2023-04-01T07:04:57.719Z,3.33
2023-04-01T07:07:49.642Z,2.80
2023-04-01T07:10:31.574Z,3.25
2023-04-01T07:13:03.596Z,2.70
2023-04-01T07:15:41.228Z,2.70
2023-04-01T07:18:29.379Z,2.38
2023-04-01T07:20:58.026Z,2.90
2023-04-01T07:23:43.592Z,3.35
2023-04-01T07:26:24.760Z,3.05
2023-04-01T07:28:55.620Z,3.38
2023-04-01T07:31:57.196Z,3.97
2023-04-01T07:34:51.523Z,4.68
2023-04-01T07:37:46.766Z,5.53
2023-04-01T07:40:28.851Z,5.68
2023-04-01T07:43:18.367Z,5.80
2023-04-01T07:46:00.725Z,8.02
2023-04-01T07:49:06.343Z,8.70
2023-04-01T07:51:47.259Z,8.68
2023-04-01T07:55:00.716Z,8.75
2023-04-01T07:57:42.702Z,9.38
2023-04-01T08:01:07.835Z,9.32
2023-04-01T08:03:45.624Z,9.63
2023-04-01T08:06:28.758Z,10.35
2023-04-01T08:09:41.986Z,10.50
2023-04-01T08:12:19.426Z,12.23
2023-04-01T08:15:13.015Z,11.43
2023-04-01T08:18:07.336Z,11.73
2023-04-01T08:20:54.410Z,12.20
2023-04-01T08:23:38.660Z,12.07
2023-04-01T08:26:17.404Z,10.77
2023-04-01T08:29:01.092Z,10.23
2023-04-01T08:32:20.440Z,9.75
2023-04-01T08:34:54.018Z,9.25
2023-04-01T08:37:30.330Z,7.50
2023-04-01T08:40:41.776Z,7.45
2023-04-01T08:43:18.290Z,7.72
2023-04-01T08:46:14.396Z,9.35
2023-04-01T08:49:13.675Z,12.15
2023-04-01T08:52:08.284Z,8.80
2023-04-01T08:55:04.054Z,8.57
2023-04-01T08:58:22.567Z,7.45
2023-04-01T09:01:15.326Z,7.60
2023-04-01T09:04:31.965Z,7.57
2023-04-01T09:07:33.552Z,8.85
2023-04-01T09:10:31.004Z,7.53
2023-04-01T09:13:55.042Z,7.57
2023-04-01T09:16:24.730Z,7.68
2023-04-01T09:19:10.066Z,6.90
2023-04-01T09:21:53.950Z,6.47
2023-04-01T09:25:03.248Z,6.47
2023-04-01T09:27:38.416Z,5.60
2023-04-01T09:30:42.858Z,6.38
2023-04-01T09:33:57.643Z,6.43
2023-04-01T09:36:46.989Z,5.50
2023-04-01T09:39:54.608Z,5.70
2023-04-01T09:42:57.403Z,5.32
2023-04-01T09:45:55.117Z,6.18
2023-04-01T09:48:52.975Z,5.85
2023-04-01T09:51:38.589Z,5.35
2023-04-01T09:54:13.318Z,5.32
2023-04-01T09:57:17.158Z,5.47
2023-04-01T10:00:22.350Z,5.05
2023-04-01T10:03:45.611Z,4.95
2023-04-01T10:06:55.618Z,5.28
2023-04-01T10:10:00.504Z,5.28
2023-04-01T10:12:52.291Z,4.80
2023-04-01T10:15:40.983Z,5.30
2023-04-01T10:18:26.682Z,5.45
2023-04-01T10:21:08.086Z,3.88
2023-04-01T10:24:11.420Z,3.88
2023-04-01T10:26:56.272Z,3.20
2023-04-01T10:29:48.171Z,2.50
2023-04-01T10:33:03.451Z,2.53
2023-04-01T10:35:55.236Z,2.00
2023-04-01T10:38:37.155Z,2.10
2023-04-01T10:41:29.571Z,2.50
2023-04-01T10:44:08.387Z,2.60
2023-04-01T10:46:57.185Z,2.92
2023-04-01T10:50:22.851Z,2.80
2023-04-01T10:53:40.256Z,3.67
2023-04-01T10:56:34.568Z,3.90
2023-04-01T10:59:32.160Z,4.00
2023-04-01T11:02:31.093Z,4.20
2023-04-01T11:04:58.005Z,4.60
2023-04-01T11:08:07.337Z,3.78
2023-04-01T11:11:31.986Z,4.50
2023-04-01T11:14:39.041Z,4.25
2023-04-01T11:17:43.553Z,4.85
2023-04-01T11:20:22.440Z,3.58
2023-04-01T11:23:11.317Z,3.30
2023-04-01T11:26:20.202Z,3.22
2023-04-01T11:29:10.742Z,2.67
2023-04-01T11:32:04.130Z,2.30
2023-04-01T11:35:24.237Z,2.33
2023-04-01T11:38:15.174Z,2.97
2023-04-01T11:41:06.317Z,2.38
2023-04-01T11:43:50.534Z,2.08
2023-04-01T11:47:09.162Z,2.22
2023-04-01T11:49:48.541Z,1.92
2023-04-01T11:53:04.040Z,2.13
2023-04-01T11:55:50.370Z,1.95
2023-04-01T11:59:06.181Z,1.73
2023-04-01T12:02:22.100Z,1.60
2023-04-01T12:05:23.187Z,1.42
2023-04-01T12:08:37.730Z,1.50
2023-04-01T12:11:31.985Z,1.60
2023-04-01T12:14:14.690Z,1.70
2023-04-01T12:17:20.984Z,1.10
2023-04-01T12:20:12.863Z,1.40
2023-04-01T12:23:08.474Z,1.20
2023-04-01T12:26:31.694Z,1.23
2023-04-01T12:29:39.916Z,1.33
2023-04-01T12:32:26.664Z,0.90
2023-04-01T12:35:22.600Z,0.90
2023-04-01T12:38:13.802Z,0.85
2023-04-01T12:41:11.569Z,1.17
2023-04-01T12:44:17.160Z,0.98
2023-04-01T12:47:16.405Z,1.30
2023-04-01T12:50:08.344Z,0.98
2023-04-01T12:53:41.618Z,1.10
2023-04-01T12:56:33.370Z,1.00
2023-04-01T12:59:37.710Z,1.42
2023-04-01T13:02:19.594Z,1.40
2023-04-01T13:05:15.421Z,1.42
2023-04-01T13:08:29.564Z,2.08
2023-04-01T13:11:33.701Z,4.68
2023-04-01T13:14:31.193Z,5.18
2023-04-01T13:17:34.981Z,3.40
2023-04-01T13:20:43.819Z,3.25
2023-04-01T13:23:59.881Z,2.28
2023-04-01T13:27:11.569Z,2.30
2023-04-01T13:29:55.957Z,2.85
2023-04-01T13:32:43.236Z,2.90
2023-04-01T13:35:23.329Z,2.90
2023-04-01T13:38:26.534Z,2.30
2023-04-01T13:41:11.969Z,1.73
2023-04-01T13:43:50.700Z,2.20
2023-04-01T13:46:54.606Z,1.85
2023-04-01T13:50:01.481Z,2.17
2023-04-01T13:52:49.907Z,2.00
2023-04-01T13:56:10.086Z,2.70
2023-04-01T13:58:52.993Z,2.60
2023-04-01T14:02:03.752Z,2.88
2023-04-01T14:05:32.475Z,2.75
2023-04-01T14:08:36.275Z,3.00
2023-04-01T14:11:40.802Z,2.20
2023-04-01T14:14:56.331Z,1.98
2023-04-01T14:17:50.618Z,2.10
2023-04-01T14:20:41.836Z,3.15
2023-04-01T14:23:32.736Z,2.83
2023-04-01T14:26:23.944Z,2.47
2023-04-01T14:29:27.239Z,2.15
2023-04-01T14:33:01.170Z,2.33
2023-04-01T14:36:06.315Z,2.28
2023-04-01T14:38:59.800Z,2.05
2023-04-01T14:41:51.281Z,2.00
2023-04-01T14:45:14.857Z,2.95
2023-04-01T14:48:18.177Z,2.15
2023-04-01T14:50:53.268Z,2.42
2023-04-01T14:53:34.918Z,2.85
2023-04-01T14:56:03.945Z,2.65
2023-04-01T14:59:00.572Z,3.13
2023-04-01T15:01:43.477Z,2.50
2023-04-01T15:04:29.063Z,3.05
2023-04-01T15:07:29.262Z,3.53
2023-04-01T15:10:36.182Z,2.92
2023-04-01T15:13:30.503Z,2.92
2023-04-01T15:16:55.825Z,2.42
2023-04-01T15:20:00.952Z,2.70
2023-04-01T15:22:55.309Z,2.72
2023-04-01T15:25:56.403Z,3.15
2023-04-01T15:28:43.756Z,3.25
2023-04-01T15:31:39.181Z,2.85
2023-04-01T15:34:58.314Z,2.72
2023-04-01T15:37:57.433Z,3.10
2023-04-01T15:40:24.310Z,2.00
2023-04-01T15:43:11.236Z,2.00
2023-04-01T15:45:47.425Z,2.35
2023-04-01T15:48:55.774Z,1.88
2023-04-01T15:51:34.676Z,1.80
2023-04-01T15:54:38.077Z,2.42
2023-04-01T15:57:47.562Z,2.30
2023-04-01T16:00:55.989Z,2.00
2023-04-01T16:03:51.750Z,2.53
2023-04-01T16:06:46.905Z,2.78
2023-04-01T16:09:33.571Z,2.27
2023-04-01T16:12:33.608Z,2.47
2023-04-01T16:15:18.241Z,2.67
2023-04-01T16:18:03.684Z,2.53
2023-04-01T16:20:52.607Z,2.50
2023-04-01T16:23:41.326Z,2.43
2023-04-01T16:26:35.076Z,2.50
2023-04-01T16:29:24.304Z,1.90
2023-04-01T16:32:30.428Z,2.40
2023-04-01T16:35:25.176Z,2.20
2023-04-01T16:38:06.053Z,2.07
2023-04-01T16:41:04.891Z,1.80
2023-04-01T16:43:47.660Z,1.98
2023-04-01T16:46:36.208Z,2.30
2023-04-01T16:49:12.290Z,1.90
2023-04-01T16:51:45.971Z,2.53
2023-04-01T16:54:53.005Z,2.20
2023-04-01T16:57:31.564Z,2.50
2023-04-01T17:00:49.474Z,2.60
2023-04-01T17:03:46.863Z,2.60
2023-04-01T17:06:45.157Z,2.73
2023-04-01T17:09:23.384Z,5.20
2023-04-01T17:12:14.103Z,5.40
2023-04-01T17:15:37.004Z,4.17
2023-04-01T17:18:24.426Z,4.27
2023-04-01T17:21:17.342Z,4.57
2023-04-01T17:24:24.889Z,4.50
2023-04-01T17:27:44.461Z,4.40
2023-04-01T17:30:36.905Z,4.40
2023-04-01T17:33:15.663Z,4.33
2023-04-01T17:36:23.429Z,4.87
2023-04-01T17:39:15.127Z,5.00
2023-04-01T17:42:01.704Z,4.77
2023-04-01T17:44:34.679Z,4.80
2023-04-01T17:47:07.412Z,5.10
2023-04-01T17:49:45.775Z,4.87
2023-04-01T17:52:43.716Z,4.77
2023-04-01T17:55:46.353Z,4.80
2023-04-01T17:58:30.140Z,5.23
2023-04-01T18:01:21.158Z,4.73
2023-04-01T18:04:09.223Z,4.67
2023-04-01T18:06:53.240Z,5.40
2023-04-01T18:09:57.861Z,5.20
2023-04-01T18:12:52.705Z,5.70
2023-04-01T18:15:43.582Z,5.20
2023-04-01T18:18:40.516Z,5.93
2023-04-01T18:21:44.132Z,6.20
2023-04-01T18:24:22.109Z,5.83
2023-04-01T18:27:30.224Z,6.03
2023-04-01T18:30:30.787Z,6.17
2023-04-01T18:33:20.897Z,6.60
2023-04-01T18:36:17.691Z,6.70
2023-04-01T18:38:57.152Z,6.80
2023-04-01T18:41:43.622Z,7.10
2023-04-01T18:44:54.362Z,6.73
2023-04-01T18:47:44.596Z,6.23
2023-04-01T18:50:35.761Z,7.30
2023-04-01T18:53:42.458Z,6.70
2023-04-01T18:56:36.999Z,7.03
2023-04-01T18:59:57.941Z,6.67
2023-04-01T19:02:49.595Z,6.10
2023-04-01T19:05:39.270Z,6.47
2023-04-01T19:08:41.268Z,6.37
2023-04-01T19:11:29.233Z,5.87
2023-04-01T19:14:09.262Z,6.50
2023-04-01T19:16:44.762Z,6.37
2023-04-01T19:19:20.759Z,6.03
2023-04-01T19:21:54.004Z,6.17
2023-04-01T19:24:37.461Z,5.97
2023-04-01T19:27:34.265Z,6.03
2023-04-01T19:30:28.552Z,6.83
2023-04-01T19:33:21.875Z,6.73
2023-04-01T19:35:57.010Z,6.97
2023-04-01T19:38:40.255Z,6.40
2023-04-01T19:41:26.450Z,5.60
2023-04-01T19:44:19.506Z,5.60
2023-04-01T19:47:13.503Z,5.97
2023-04-01T19:50:08.142Z,5.60
2023-04-01T19:52:41.173Z,5.93
2023-04-01T19:55:50.601Z,6.67
2023-04-01T19:58:27.922Z,5.73
2023-04-01T20:01:00.191Z,5.57
2023-04-01T20:03:43.906Z,5.73
2023-04-01T20:06:22.916Z,5.30
2023-04-01T20:09:34.876Z,5.80
2023-04-01T20:12:36.705Z,7.07
2023-04-01T20:15:37.738Z,6.70
2023-04-01T20:18:19.340Z,5.30
2023-04-01T20:21:19.666Z,5.37
2023-04-01T20:24:00.428Z,4.90
2023-04-01T20:26:34.814Z,6.07
2023-04-01T20:29:23.133Z,5.43
2023-04-01T20:32:25.256Z,5.53
2023-04-01T20:34:55.009Z,5.63
2023-04-01T20:37:48.426Z,6.00
2023-04-01T20:40:38.778Z,5.57
2023-04-01T20:43:52.225Z,4.87
2023-04-01T20:46:40.535Z,4.43
2023-04-01T20:49:32.574Z,4.50
2023-04-01T20:52:30.562Z,5.50
2023-04-01T20:55:47.689Z,4.67
2023-04-01T20:58:36.311Z,3.87
2023-04-01T21:01:15.312Z,4.73
2023-04-01T21:04:11.558Z,4.53
2023-04-01T21:07:05.553Z,4.30
2023-04-01T21:10:18.074Z,3.70
2023-04-01T21:13:06.133Z,3.73
2023-04-01T21:16:19.050Z,3.60
2023-04-01T21:19:17.332Z,4.70
2023-04-01T21:22:20.516Z,3.97
2023-04-01T21:25:24.482Z,3.90
2023-04-01T21:28:38.276Z,3.43
2023-04-01T21:31:37.769Z,4.30
2023-04-01T21:34:44.017Z,4.40
2023-04-01T21:37:32.094Z,4.00
2023-04-01T21:40:35.490Z,3.80
2023-04-01T21:43:35.550Z,4.73
2023-04-01T21:46:08.433Z,4.27
2023-04-01T21:49:01.033Z,3.93
2023-04-01T21:51:56.618Z,4.07
2023-04-01T21:54:41.678Z,4.50
2023-04-01T21:57:35.805Z,5.37
2023-04-01T22:00:16.849Z,5.30
2023-04-01T22:02:55.789Z,5.87
2023-04-01T22:06:01.574Z,5.97
2023-04-01T22:08:46.492Z,6.30
2023-04-01T22:11:37.656Z,5.67
2023-04-01T22:14:16.126Z,5.70
2023-04-01T22:17:04.627Z,4.87
2023-04-01T22:20:11.260Z,4.50
2023-04-01T22:23:16.866Z,5.83
2023-04-01T22:25:49.619Z,4.53
2023-04-01T22:28:37.997Z,5.30
2023-04-01T22:31:09.145Z,5.50
2023-04-01T22:33:50.358Z,5.40
2023-04-01T22:37:02.046Z,5.00
2023-04-01T22:40:22.126Z,4.97
2023-04-01T22:43:00.869Z,5.07
2023-04-01T22:46:04.898Z,5.10
2023-04-01T22:48:48.997Z,5.07
2023-04-01T22:51:53.121Z,4.63
2023-04-01T22:54:36.305Z,5.53
2023-04-01T22:57:21.113Z,6.20
2023-04-01T23:00:21.653Z,6.60
2023-04-01T23:03:17.542Z,5.80
2023-04-01T23:05:54.190Z,5.70
2023-04-01T23:09:06.108Z,6.03
2023-04-01T23:11:43.504Z,5.50
2023-04-01T23:14:58.114Z,5.67
2023-04-01T23:17:54.490Z,5.10
2023-04-01T23:21:07.216Z,4.60
2023-04-01T23:23:44.039Z,4.60
2023-04-01T23:26:56.536Z,5.13
2023-04-01T23:29:24.472Z,4.70
2023-04-01T23:32:05.360Z,4.27
2023-04-01T23:34:37.136Z,4.17
2023-04-01T23:37:13.072Z,4.70
2023-04-01T23:39:46.258Z,4.97
2023-04-01T23:42:39.093Z,4.60
2023-04-01T23:45:21.009Z,4.63
2023-04-01T23:47:51.385Z,4.87
2023-04-01T23:50:23.991Z,5.03
2023-04-01T23:53:15.530Z,4.93
2023-04-01T23:55:43.580Z,5.83
2023-04-01T23:58:12.048Z,6.50
